createdAt,value
2022-11-21T00:00:45.736Z,28.33
2022-11-21T00:03:12.434Z,27.97
2022-11-21T00:05:43.850Z,31.00
2022-11-21T00:08:11.570Z,32.17
2022-11-21T00:10:39.634Z,27.17
2022-11-21T00:13:07.117Z,28.37
2022-11-21T00:15:35.640Z,28.13
2022-11-21T00:18:03.195Z,30.43
2022-11-21T00:20:29.902Z,28.97
2022-11-21T00:22:56.467Z,28.43
2022-11-21T00:25:23.053Z,26.43
2022-11-21T00:27:49.628Z,30.70
2022-11-21T00:30:16.144Z,33.27
2022-11-21T00:32:42.671Z,29.43
2022-11-21T00:35:09.333Z,28.10
2022-11-21T00:37:35.933Z,29.03
2022-11-21T00:40:02.955Z,28.63
2022-11-21T00:42:29.516Z,29.40
2022-11-21T00:44:56.051Z,29.70
2022-11-21T00:47:22.479Z,31.97
2022-11-21T00:49:49.095Z,26.43
2022-11-21T00:52:16.844Z,30.17
2022-11-21T00:54:43.644Z,28.27
2022-11-21T00:57:10.343Z,30.57
2022-11-21T00:59:36.912Z,26.67
2022-11-21T01:02:03.328Z,26.50
2022-11-21T01:04:33.855Z,25.97
2022-11-21T01:07:01.021Z,31.87
2022-11-21T01:09:28.609Z,28.97
2022-11-21T01:11:56.188Z,33.10
2022-11-21T01:14:23.631Z,29.23
2022-11-21T01:16:52.830Z,29.23
2022-11-21T01:19:19.387Z,28.33
2022-11-21T01:21:45.835Z,30.53
2022-11-21T01:24:12.602Z,29.17
2022-11-21T01:26:39.307Z,32.33
2022-11-21T01:29:06.845Z,30.63
2022-11-21T01:31:33.306Z,29.17
2022-11-21T01:34:01.115Z,32.57
2022-11-21T01:36:30.245Z,28.40
2022-11-21T01:38:59.868Z,32.67
2022-11-21T01:41:33.440Z,33.57
2022-11-21T01:44:01.491Z,32.07
2022-11-21T01:46:28.016Z,30.50
2022-11-21T01:49:03.183Z,31.23
2022-11-21T01:51:47.981Z,32.40
2022-11-21T01:54:34.868Z,32.43
2022-11-21T01:57:07.810Z,27.57
2022-11-21T01:59:39.149Z,28.87
2022-11-21T02:02:08.103Z,29.27
2022-11-21T02:04:35.798Z,30.20
2022-11-21T02:07:04.743Z,32.10
2022-11-21T02:09:32.931Z,26.20
2022-11-21T02:12:03.039Z,26.50
2022-11-21T02:14:29.846Z,29.00
2022-11-21T02:17:00.770Z,26.23
2022-11-21T02:19:41.533Z,25.57
2022-11-21T02:22:14.448Z,25.13
2022-11-21T02:24:47.532Z,28.40
2022-11-21T02:27:15.023Z,26.07
2022-11-21T02:29:41.648Z,25.30
2022-11-21T02:32:08.043Z,23.43
2022-11-21T02:34:34.622Z,26.00
2022-11-21T02:37:02.113Z,25.77
2022-11-21T02:39:34.320Z,28.03
2022-11-21T02:42:17.079Z,24.47
2022-11-21T02:44:56.269Z,25.97
2022-11-21T02:47:23.140Z,28.93
2022-11-21T02:49:56.093Z,27.50
2022-11-21T02:52:22.808Z,24.83
2022-11-21T02:54:49.437Z,26.07
2022-11-21T02:57:15.982Z,29.30
2022-11-21T02:59:42.411Z,23.20
2022-11-21T03:02:08.923Z,26.03
2022-11-21T03:04:35.588Z,23.10
2022-11-21T03:07:02.070Z,27.23
2022-11-21T03:09:28.703Z,24.73
2022-11-21T03:11:55.340Z,25.10
2022-11-21T03:14:21.894Z,26.33
2022-11-21T03:16:48.295Z,23.77
2022-11-21T03:19:14.740Z,23.50
2022-11-21T03:21:41.296Z,24.13
2022-11-21T03:24:08.036Z,26.40
2022-11-21T03:26:34.476Z,27.40
2022-11-21T03:29:00.996Z,25.17
2022-11-21T03:31:27.573Z,26.60
2022-11-21T03:33:54.121Z,29.57
2022-11-21T03:36:20.649Z,23.90
2022-11-21T03:38:47.078Z,28.97
2022-11-21T03:41:31.580Z,27.03
2022-11-21T03:44:09.833Z,26.13
2022-11-21T03:46:41.049Z,26.07
2022-11-21T03:49:08.117Z,23.73
2022-11-21T03:51:35.077Z,24.40
2022-11-21T03:54:01.838Z,25.03
2022-11-21T03:56:28.474Z,23.63
2022-11-21T03:58:55.091Z,26.13
2022-11-21T04:01:21.963Z,24.00
2022-11-21T04:03:48.885Z,24.57
2022-11-21T04:06:18.537Z,26.60
2022-11-21T04:08:45.119Z,25.33
2022-11-21T04:11:11.643Z,27.90
2022-11-21T04:13:38.415Z,21.83
2022-11-21T04:16:05.056Z,26.87
2022-11-21T04:18:31.835Z,28.80
2022-11-21T04:21:04.167Z,24.90
2022-11-21T04:23:30.724Z,22.83
2022-11-21T04:25:57.142Z,26.53
2022-11-21T04:28:23.646Z,24.43
2022-11-21T04:30:52.457Z,25.73
2022-11-21T04:33:21.294Z,23.03
2022-11-21T04:35:47.812Z,22.83
2022-11-21T04:38:14.737Z,25.40
2022-11-21T04:40:43.243Z,23.93
2022-11-21T04:43:09.824Z,29.90
2022-11-21T04:45:36.277Z,30.73
2022-11-21T04:48:02.822Z,30.00
2022-11-21T04:50:29.308Z,26.10
2022-11-21T04:52:57.249Z,28.47
2022-11-21T04:55:27.527Z,32.83
2022-11-21T04:57:54.081Z,30.27
2022-11-21T05:00:24.437Z,37.77
2022-11-21T05:02:51.192Z,34.17
2022-11-21T05:05:17.666Z,37.33
2022-11-21T05:07:44.317Z,39.50
2022-11-21T05:10:11.026Z,38.43
2022-11-21T05:12:56.157Z,46.40
2022-11-21T05:15:24.880Z,38.50
2022-11-21T05:17:51.991Z,33.17
2022-11-21T05:20:19.126Z,35.63
2022-11-21T05:22:49.891Z,39.27
2022-11-21T05:25:16.771Z,36.30
2022-11-21T05:27:43.248Z,40.30
2022-11-21T05:30:11.057Z,39.23
2022-11-21T05:32:37.830Z,38.10
2022-11-21T05:35:04.442Z,39.90
2022-11-21T05:37:30.885Z,43.00
2022-11-21T05:39:57.381Z,54.87
2022-11-21T05:42:43.757Z,50.60
2022-11-21T05:45:10.434Z,41.37
2022-11-21T05:47:37.163Z,48.83
2022-11-21T05:50:04.386Z,64.07
2022-11-21T05:52:30.876Z,80.60
2022-11-21T05:54:57.475Z,56.33
2022-11-21T05:57:24.171Z,49.27
2022-11-21T05:59:50.817Z,55.83
2022-11-21T06:02:35.810Z,62.40
2022-11-21T06:05:02.278Z,68.63
2022-11-21T06:07:28.790Z,70.47
2022-11-21T06:09:55.497Z,57.57
2022-11-21T06:12:25.415Z,76.07
2022-11-21T06:14:52.447Z,57.27
2022-11-21T06:17:19.220Z,52.90
2022-11-21T06:19:46.013Z,47.17
2022-11-21T06:22:12.467Z,45.20
2022-11-21T06:24:38.857Z,50.43
2022-11-21T06:27:05.512Z,50.10
2022-11-21T06:29:32.148Z,50.43
2022-11-21T06:31:58.663Z,48.70
2022-11-21T06:34:28.242Z,44.93
2022-11-21T06:36:54.904Z,40.20
2022-11-21T06:39:21.407Z,36.13
2022-11-21T06:41:51.260Z,40.00
2022-11-21T06:44:21.074Z,31.90
2022-11-21T06:46:51.240Z,37.17
2022-11-21T06:49:17.922Z,35.30
2022-11-21T06:51:44.740Z,35.83
2022-11-21T06:54:16.339Z,35.87
2022-11-21T06:56:43.713Z,42.47
2022-11-21T06:59:10.327Z,36.40
2022-11-21T07:01:37.033Z,35.37
2022-11-21T07:04:03.715Z,36.83
2022-11-21T07:06:30.193Z,34.80
2022-11-21T07:11:43.692Z,39.87
2022-11-21T07:14:10.226Z,38.80
2022-11-21T07:16:37.385Z,41.57
2022-11-21T07:19:03.833Z,39.97
2022-11-21T07:21:30.270Z,40.13
2022-11-21T07:23:56.737Z,39.53
2022-11-21T07:26:23.178Z,43.80
2022-11-21T07:28:51.217Z,37.03
2022-11-21T07:31:17.880Z,40.37
2022-11-21T07:33:45.615Z,34.33
2022-11-21T07:36:12.652Z,40.73
2022-11-21T07:38:40.886Z,41.87
2022-11-21T07:41:07.470Z,40.67
2022-11-21T07:43:33.894Z,37.47
2022-11-21T07:46:00.564Z,39.37
2022-11-21T07:48:27.029Z,38.57
2022-11-21T07:50:53.664Z,36.40
2022-11-21T07:53:20.090Z,37.73
2022-11-21T07:55:46.551Z,40.47
2022-11-21T07:58:15.909Z,33.37
2022-11-21T08:00:43.051Z,33.27
2022-11-21T08:03:12.156Z,30.53
2022-11-21T08:05:40.454Z,29.90
2022-11-21T08:08:07.242Z,33.30
2022-11-21T08:10:36.568Z,34.17
2022-11-21T08:13:03.020Z,34.77
2022-11-21T08:15:29.442Z,30.23
2022-11-21T08:17:56.134Z,30.17
2022-11-21T08:20:22.869Z,34.30
2022-11-21T08:22:49.847Z,35.33
2022-11-21T08:25:16.558Z,31.33
2022-11-21T08:27:44.374Z,30.90
2022-11-21T08:30:14.823Z,32.20
2022-11-21T08:32:52.664Z,34.20
2022-11-21T08:35:19.229Z,32.50
2022-11-21T08:37:45.773Z,30.90
2022-11-21T08:40:12.415Z,32.77
2022-11-21T08:42:39.024Z,30.47
2022-11-21T08:45:06.598Z,33.80
2022-11-21T08:47:34.555Z,33.27
2022-11-21T08:50:07.336Z,37.00
2022-11-21T08:52:35.473Z,33.03
2022-11-21T08:55:02.525Z,33.50
2022-11-21T08:57:29.627Z,32.60
2022-11-21T08:59:56.313Z,35.77
2022-11-21T09:02:22.733Z,37.30
2022-11-21T09:04:49.207Z,35.63
2022-11-21T09:07:15.841Z,32.97
2022-11-21T09:09:42.829Z,36.80
2022-11-21T09:12:09.712Z,36.13
2022-11-21T09:14:54.899Z,40.33
2022-11-21T09:17:42.360Z,38.37
2022-11-21T09:20:09.348Z,41.73
2022-11-21T09:22:35.843Z,37.50
2022-11-21T09:25:02.321Z,39.53
2022-11-21T09:27:30.418Z,35.43
2022-11-21T09:29:56.943Z,36.53
2022-11-21T09:32:23.892Z,39.83
2022-11-21T09:34:50.764Z,33.93
2022-11-21T09:37:17.458Z,36.80
2022-11-21T09:39:43.926Z,32.60
2022-11-21T09:42:24.063Z,33.70
2022-11-21T09:44:50.617Z,32.33
2022-11-21T09:47:31.495Z,32.73
2022-11-21T09:50:01.065Z,32.77
2022-11-21T09:52:36.051Z,38.13
2022-11-21T09:55:06.811Z,35.40
2022-11-21T09:57:35.733Z,32.10
2022-11-21T10:00:04.917Z,33.70
2022-11-21T10:02:31.402Z,30.67
2022-11-21T10:05:00.737Z,31.30
2022-11-21T10:07:29.656Z,36.87
2022-11-21T10:10:14.950Z,29.80
2022-11-21T10:13:03.220Z,31.43
2022-11-21T10:15:55.977Z,32.47
2022-11-21T10:18:39.088Z,29.43
2022-11-21T10:21:31.314Z,29.83
2022-11-21T10:24:10.447Z,29.60
2022-11-21T10:27:06.850Z,27.37
2022-11-21T10:29:37.043Z,31.43
2022-11-21T10:32:21.048Z,27.37
2022-11-21T10:34:49.483Z,29.20
2022-11-21T10:37:26.181Z,28.37
2022-11-21T10:39:54.617Z,29.07
2022-11-21T10:42:35.784Z,26.70
2022-11-21T10:45:19.808Z,26.60
2022-11-21T10:47:48.785Z,28.47
2022-11-21T10:50:29.117Z,29.67
2022-11-21T10:53:24.750Z,28.33
2022-11-21T10:56:13.889Z,29.97
2022-11-21T10:58:43.375Z,28.90
2022-11-21T11:01:23.274Z,25.23
2022-11-21T11:04:45.610Z,27.70
2022-11-21T11:07:00.131Z,28.43
2022-11-21T11:09:34.528Z,30.83
2022-11-21T11:12:48.478Z,23.23
2022-11-21T11:15:26.153Z,26.17
2022-11-21T11:17:57.833Z,25.67
2022-11-21T11:20:36.521Z,39.37
2022-11-21T11:23:16.148Z,83.80
2022-11-21T11:26:15.066Z,35.23
2022-11-21T11:28:41.592Z,22.73
2022-11-21T11:31:08.346Z,24.90
2022-11-21T11:33:50.986Z,21.90
2022-11-21T11:36:41.301Z,26.10
2022-11-21T11:39:19.503Z,26.80
2022-11-21T11:42:23.573Z,25.20
2022-11-21T11:45:26.795Z,23.30
2022-11-21T11:47:59.321Z,25.07
2022-11-21T11:50:37.275Z,26.10
2022-11-21T11:53:31.815Z,24.87
2022-11-21T11:56:01.977Z,26.80
2022-11-21T11:58:45.344Z,28.60
2022-11-21T12:01:14.738Z,27.80
2022-11-21T12:04:22.288Z,23.43
2022-11-21T12:07:52.803Z,27.60
2022-11-21T12:09:49.958Z,28.43
2022-11-21T12:12:16.472Z,26.07
2022-11-21T12:15:13.809Z,28.13
2022-11-21T12:17:47.106Z,25.67
2022-11-21T12:20:45.158Z,26.47
2022-11-21T12:23:12.338Z,25.90
2022-11-21T12:25:47.408Z,29.07
2022-11-21T12:28:54.425Z,28.13
2022-11-21T12:31:26.370Z,31.53
2022-11-21T12:34:02.543Z,28.67
2022-11-21T12:36:40.604Z,30.13
2022-11-21T12:39:25.667Z,28.30
2022-11-21T12:42:21.043Z,28.00
2022-11-21T12:45:20.947Z,29.63
2022-11-21T12:48:18.626Z,32.00
2022-11-21T12:51:06.870Z,30.83
2022-11-21T12:54:03.370Z,30.80
2022-11-21T12:56:38.609Z,24.60
2022-11-21T12:59:05.709Z,26.73
2022-11-21T13:01:58.459Z,29.97
2022-11-21T13:04:28.353Z,29.23
2022-11-21T13:06:56.169Z,27.70
2022-11-21T13:09:23.290Z,26.07
2022-11-21T13:12:02.559Z,28.20
2022-11-21T13:14:36.551Z,25.37
2022-11-21T13:17:06.726Z,24.77
2022-11-21T13:19:45.301Z,23.07
2022-11-21T13:22:36.794Z,21.10
2022-11-21T13:25:13.660Z,21.30
2022-11-21T13:27:40.720Z,20.67
2022-11-21T13:30:07.755Z,17.20
2022-11-21T13:32:38.340Z,23.90
2022-11-21T13:35:19.666Z,18.50
2022-11-21T13:37:52.395Z,20.20
2022-11-21T13:40:27.917Z,19.00
2022-11-21T13:43:33.296Z,17.17
2022-11-21T13:46:00.862Z,18.83
2022-11-21T13:48:36.830Z,17.37
2022-11-21T13:51:09.835Z,20.43
2022-11-21T13:53:45.959Z,20.10
2022-11-21T13:56:37.321Z,22.53
2022-11-21T13:59:16.013Z,22.80
2022-11-21T14:01:54.603Z,23.93
2022-11-21T14:04:42.570Z,24.07
2022-11-21T14:07:30.094Z,23.73
2022-11-21T14:10:01.773Z,24.47
2022-11-21T14:12:38.439Z,23.57
2022-11-21T14:15:32.395Z,29.90
2022-11-21T14:17:59.795Z,25.30
2022-11-21T14:20:28.616Z,24.37
2022-11-21T14:23:01.363Z,28.17
2022-11-21T14:25:35.409Z,25.50
2022-11-21T14:28:02.583Z,24.30
2022-11-21T14:30:40.254Z,29.43
2022-11-21T14:33:29.517Z,28.30
2022-11-21T14:35:58.058Z,25.97
2022-11-21T14:38:24.898Z,25.20
2022-11-21T14:40:51.901Z,28.40
2022-11-21T14:43:36.629Z,26.13
2022-11-21T14:46:03.151Z,25.77
2022-11-21T14:48:30.492Z,25.90
2022-11-21T14:50:58.431Z,28.90
2022-11-21T14:53:25.804Z,32.20
2022-11-21T14:55:56.839Z,29.43
2022-11-21T14:58:26.514Z,28.53
2022-11-21T15:01:20.216Z,28.33
2022-11-21T15:03:56.925Z,26.80
2022-11-21T15:06:24.237Z,32.30
2022-11-21T15:12:04.768Z,30.73
2022-11-21T15:15:01.857Z,26.33
2022-11-21T15:17:28.576Z,28.93
2022-11-21T15:20:12.309Z,27.97
2022-11-21T15:22:41.433Z,28.93
2022-11-21T15:25:22.281Z,33.40
2022-11-21T15:27:53.016Z,28.17
2022-11-21T15:30:21.986Z,29.27
2022-11-21T15:33:01.655Z,28.23
2022-11-21T15:35:32.122Z,28.97
2022-11-21T15:37:58.809Z,26.90
2022-11-21T15:40:25.328Z,30.03
2022-11-21T15:42:51.955Z,32.67
2022-11-21T15:45:27.583Z,30.13
2022-11-21T15:47:55.518Z,31.93
2022-11-21T15:50:25.097Z,29.03
2022-11-21T15:52:52.454Z,26.77
2022-11-21T15:55:22.703Z,30.53
2022-11-21T15:57:49.251Z,32.70
2022-11-21T16:00:17.222Z,31.37
2022-11-21T16:02:43.617Z,32.23
2022-11-21T16:05:12.606Z,29.00
2022-11-21T16:07:39.272Z,32.97
2022-11-21T16:10:07.130Z,29.00
2022-11-21T16:12:35.513Z,32.23
2022-11-21T16:15:02.425Z,30.70
2022-11-21T16:17:28.863Z,33.63
2022-11-21T16:19:55.316Z,31.23
2022-11-21T16:22:21.813Z,30.93
2022-11-21T16:24:49.472Z,32.43
2022-11-21T16:27:16.432Z,30.63
2022-11-21T16:29:42.881Z,33.47
2022-11-21T16:32:09.289Z,34.80
2022-11-21T16:34:36.055Z,36.20
2022-11-21T16:37:07.150Z,35.50
2022-11-21T16:39:34.473Z,34.97
2022-11-21T16:42:01.216Z,35.50
2022-11-21T16:44:30.140Z,35.37
2022-11-21T16:46:56.736Z,40.00
2022-11-21T16:49:24.638Z,35.13
2022-11-21T16:51:51.050Z,36.37
2022-11-21T16:54:17.559Z,33.50
2022-11-21T16:56:44.237Z,35.70
2022-11-21T16:59:10.870Z,35.10
2022-11-21T17:01:37.377Z,33.43
2022-11-21T17:04:03.936Z,33.67
2022-11-21T17:06:31.194Z,29.90
2022-11-21T17:09:00.065Z,32.43
2022-11-21T17:11:29.298Z,30.13
2022-11-21T17:13:58.876Z,29.43
2022-11-21T17:16:25.351Z,30.63
2022-11-21T17:18:56.149Z,30.33
2022-11-21T17:21:23.209Z,33.60
2022-11-21T17:23:50.473Z,29.13
2022-11-21T17:26:19.299Z,28.30
2022-11-21T17:28:54.526Z,28.70
2022-11-21T17:31:21.521Z,28.57
2022-11-21T17:33:51.688Z,31.93
2022-11-21T17:36:22.238Z,36.77
2022-11-21T17:38:49.233Z,32.53
2022-11-21T17:41:17.850Z,32.20
2022-11-21T17:43:44.952Z,35.03
2022-11-21T17:46:19.073Z,34.20
2022-11-21T17:48:51.460Z,32.07
2022-11-21T17:51:23.812Z,38.53
2022-11-21T17:53:51.538Z,40.23
2022-11-21T17:56:20.239Z,34.83
2022-11-21T17:58:47.233Z,37.23
2022-11-21T18:01:18.873Z,37.60
2022-11-21T18:03:47.094Z,34.67
2022-11-21T18:06:15.818Z,36.00
2022-11-21T18:08:44.223Z,36.57
2022-11-21T18:11:12.059Z,37.30
2022-11-21T18:13:39.236Z,37.97
2022-11-21T18:16:10.429Z,37.53
2022-11-21T18:18:37.384Z,33.80
2022-11-21T18:21:07.574Z,35.60
2022-11-21T18:23:34.164Z,33.93
2022-11-21T18:26:04.907Z,35.23
2022-11-21T18:28:32.116Z,32.97
2022-11-21T18:31:08.736Z,34.67
2022-11-21T18:33:36.284Z,33.27
2022-11-21T18:36:04.042Z,35.47
2022-11-21T18:38:54.850Z,36.67
2022-11-21T18:41:34.070Z,37.03
2022-11-21T18:44:02.784Z,32.30
2022-11-21T18:46:30.972Z,35.40
2022-11-21T18:49:04.632Z,33.27
2022-11-21T18:51:32.850Z,31.47
2022-11-21T18:54:08.384Z,31.07
2022-11-21T18:56:36.315Z,28.57
2022-11-21T18:59:04.605Z,29.03
2022-11-21T19:01:33.082Z,28.50
2022-11-21T19:03:59.753Z,29.57
2022-11-21T19:06:27.371Z,30.93
2022-11-21T19:08:55.714Z,26.80
2022-11-21T19:11:26.975Z,26.17
2022-11-21T19:13:54.822Z,25.03
2022-11-21T19:16:26.289Z,26.23
2022-11-21T19:21:41.454Z,25.23
2022-11-21T19:24:13.006Z,25.27
2022-11-21T19:26:39.569Z,29.50
2022-11-21T19:29:06.191Z,24.80
2022-11-21T19:31:32.634Z,26.77
2022-11-21T19:33:59.049Z,25.87
2022-11-21T19:36:25.575Z,27.17
2022-11-21T19:38:52.114Z,26.93
2022-11-21T19:41:25.356Z,26.63
2022-11-21T19:43:53.548Z,29.00
2022-11-21T19:46:28.022Z,32.10
2022-11-21T19:48:55.771Z,31.30
2022-11-21T19:51:25.126Z,27.90
2022-11-21T19:53:51.583Z,28.90
2022-11-21T19:56:20.206Z,30.93
2022-11-21T19:58:47.598Z,30.13
2022-11-21T20:01:16.320Z,32.93
2022-11-21T20:03:46.026Z,32.33
2022-11-21T20:06:23.290Z,30.07
2022-11-21T20:08:51.577Z,35.60
2022-11-21T20:11:18.091Z,33.53
2022-11-21T20:13:45.953Z,30.90
2022-11-21T20:16:22.153Z,34.70
2022-11-21T20:18:49.029Z,35.00
2022-11-21T20:21:16.295Z,37.30
2022-11-21T20:23:42.949Z,39.40
2022-11-21T20:26:09.759Z,37.33
2022-11-21T20:28:36.949Z,43.23
2022-11-21T20:31:08.606Z,39.83
2022-11-21T20:33:42.500Z,35.83
2022-11-21T20:36:19.361Z,39.50
2022-11-21T20:39:06.839Z,40.77
2022-11-21T20:41:35.728Z,36.97
2022-11-21T20:46:51.746Z,42.33
2022-11-21T20:49:18.189Z,36.10
2022-11-21T20:54:31.491Z,39.13
2022-11-21T20:56:58.182Z,41.83
2022-11-21T20:59:25.994Z,33.57
2022-11-21T21:01:52.529Z,34.73
2022-11-21T21:04:19.135Z,34.87
2022-11-21T21:06:45.607Z,35.87
2022-11-21T21:09:12.235Z,36.37
2022-11-21T21:11:52.076Z,35.17
2022-11-21T21:14:19.893Z,34.13
2022-11-21T21:16:46.838Z,34.73
2022-11-21T21:19:13.454Z,36.43
2022-11-21T21:21:41.648Z,39.67
2022-11-21T21:24:09.802Z,33.27
2022-11-21T21:26:42.977Z,40.27
2022-11-21T21:29:16.108Z,36.27
2022-11-21T21:31:50.056Z,44.33
2022-11-21T21:34:17.782Z,42.93
2022-11-21T21:36:44.459Z,40.77
2022-11-21T21:39:10.922Z,44.17
2022-11-21T21:41:40.008Z,45.60
2022-11-21T21:44:07.109Z,43.37
2022-11-21T21:46:33.613Z,43.50
2022-11-21T21:49:00.057Z,46.67
2022-11-21T21:51:28.497Z,42.33
2022-11-21T21:53:57.241Z,51.07
2022-11-21T21:56:28.317Z,44.90
2022-11-21T22:01:57.557Z,44.80
2022-11-21T22:04:24.015Z,55.63
2022-11-21T22:06:50.504Z,51.83
2022-11-21T22:09:16.981Z,54.83
2022-11-21T22:11:43.552Z,50.83
2022-11-21T22:14:15.243Z,54.33
2022-11-21T22:16:42.461Z,47.53
2022-11-21T22:19:09.705Z,48.50
2022-11-21T22:21:37.593Z,49.93
2022-11-21T22:24:25.446Z,43.30
2022-11-21T22:26:53.512Z,45.17
2022-11-21T22:29:19.894Z,50.93
2022-11-21T22:31:46.318Z,45.10
2022-11-21T22:34:15.644Z,48.40
2022-11-21T22:36:42.885Z,53.10
2022-11-21T22:39:09.273Z,43.47
2022-11-21T22:41:35.953Z,47.20
2022-11-21T22:44:02.670Z,40.27
2022-11-21T22:46:30.129Z,43.37
2022-11-21T22:48:57.043Z,41.93
2022-11-21T22:51:26.891Z,42.23
2022-11-21T22:53:53.340Z,35.20
2022-11-21T22:56:21.537Z,33.10
2022-11-21T22:58:48.027Z,32.30
2022-11-21T23:01:16.823Z,30.07
2022-11-21T23:03:43.555Z,26.43
2022-11-21T23:06:12.749Z,26.20
2022-11-21T23:08:39.898Z,25.80
2022-11-21T23:11:16.590Z,27.33
2022-11-21T23:13:44.547Z,30.97
2022-11-21T23:16:12.187Z,24.20
2022-11-21T23:18:39.113Z,27.33
2022-11-21T23:21:06.005Z,28.60
2022-11-21T23:23:32.626Z,28.83
2022-11-21T23:25:59.403Z,26.50
2022-11-21T23:28:25.926Z,25.90
2022-11-21T23:30:52.413Z,26.00
2022-11-21T23:33:19.151Z,27.47
2022-11-21T23:35:46.308Z,24.50
2022-11-21T23:38:14.295Z,26.70
2022-11-21T23:40:41.133Z,27.53
2022-11-21T23:43:07.679Z,23.83
2022-11-21T23:45:34.442Z,24.73
2022-11-21T23:48:00.933Z,26.77
2022-11-21T23:50:27.450Z,27.07
2022-11-21T23:52:54.011Z,22.20
2022-11-21T23:55:20.468Z,27.33
2022-11-21T23:57:48.310Z,27.80
